Time,TemperatureF,DewpointF,PressureIn,WindDirection,WindDirectionDegrees,WindSpeedMPH,WindSpeedGustMPH,Humidity,HourlyPrecipIn,Conditions,Clouds,dailyrainin,SoftwareType,DateUTC
2013-08-29 00:13:00,66.8,65.0,29.93,NNW,348,0.0,-999.0,95,-99.99,,,0.00,weatherlink.com 1.10,2013-08-29 04:13:00,
2013-08-29 00:28:00,66.7,65.0,29.93,NNW,348,0.0,-999.0,95,-99.99,,,0.00,weatherlink.com 1.10,2013-08-29 04:28:00,
2013-08-29 00:43:00,66.4,65.0,29.93,NNW,348,0.0,-999.0,95,-99.99,,,0.00,weatherlink.com 1.10,2013-08-29 04:43:00,
2013-08-29 00:58:00,66.2,65.0,29.93,NNW,348,0.0,-999.0,95,-99.99,,,0.00,weatherlink.com 1.10,2013-08-29 04:58:00,
2013-08-29 01:13:00,66.0,65.0,29.93,NNW,348,0.0,-999.0,95,-99.99,,,0.00,weatherlink.com 1.10,2013-08-29 05:13:00,
2013-08-29 01:28:00,65.8,65.0,29.93,NNW,348,0.0,-999.0,96,-99.99,,,0.00,weatherlink.com 1.10,2013-08-29 05:28:00,
2013-08-29 01:43:00,65.7,65.0,29.93,NNW,348,0.0,-999.0,96,-99.99,,,0.00,weatherlink.com 1.10,2013-08-29 05:43:00,
2013-08-29 01:58:00,65.4,64.0,29.94,NNW,348,0.0,-999.0,96,-99.99,,,0.00,weatherlink.com 1.10,2013-08-29 05:58:00,
2013-08-29 02:13:00,65.1,64.0,29.93,NNW,348,0.0,-999.0,96,-99.99,,,0.00,weatherlink.com 1.10,2013-08-29 06:13:00,
2013-08-29 02:28:00,64.8,64.0,29.93,NNW,348,0.0,-999.0,96,-99.99,,,0.00,weatherlink.com 1.10,2013-08-29 06:28:00,
2013-08-29 02:43:00,64.5,63.0,29.94,NNW,348,0.0,-999.0,96,-99.99,,,0.00,weatherlink.com 1.10,2013-08-29 06:43:00,
2013-08-29 02:58:00,64.0,63.0,29.94,NNW,348,0.0,-999.0,96,-99.99,,,0.00,weatherlink.com 1.10,2013-08-29 06:58:00,
2013-08-29 03:13:00,63.8,63.0,29.94,NNW,348,0.0,-999.0,96,-99.99,,,0.00,weatherlink.com 1.10,2013-08-29 07:13:00,
2013-08-29 03:28:00,63.7,63.0,29.94,NNW,348,0.0,-999.0,96,-99.99,,,0.00,weatherlink.com 1.10,2013-08-29 07:28:00,
2013-08-29 03:43:00,63.7,63.0,29.94,NNW,348,0.0,-999.0,96,-99.99,,,0.00,weatherlink.com 1.10,2013-08-29 07:43:00,
2013-08-29 03:58:00,63.7,63.0,29.95,NNW,348,0.0,-999.0,96,-99.99,,,0.00,weatherlink.com 1.10,2013-08-29 07:58:00,
2013-08-29 04:12:00,63.7,63.0,29.95,NNW,348,0.0,-999.0,96,-99.99,,,0.00,weatherlink.com 1.10,2013-08-29 08:12:00,
2013-08-29 04:28:00,63.6,63.0,29.95,NNW,348,0.0,-999.0,97,-99.99,,,0.00,weatherlink.com 1.10,2013-08-29 08:28:00,
2013-08-29 04:43:00,63.6,63.0,29.95,NNW,348,0.0,-999.0,97,-99.99,,,0.00,weatherlink.com 1.10,2013-08-29 08:43:00,
2013-08-29 04:58:00,63.4,63.0,29.95,NNW,348,0.0,-999.0,97,-99.99,,,0.00,weatherlink.com 1.10,2013-08-29 08:58:00,
2013-08-29 05:13:00,63.2,62.0,29.95,NNW,348,0.0,-999.0,97,-99.99,,,0.00,weatherlink.com 1.10,2013-08-29 09:13:00,
2013-08-29 05:28:00,63.2,62.0,29.96,NNW,348,0.0,-999.0,97,-99.99,,,0.00,weatherlink.com 1.10,2013-08-29 09:28:00,
2013-08-29 05:43:00,63.2,62.0,29.96,NNW,348,0.0,-999.0,97,-99.99,,,0.00,weatherlink.com 1.10,2013-08-29 09:43:00,
2013-08-29 05:58:00,63.1,62.0,29.96,NNW,348,0.0,-999.0,97,-99.99,,,0.00,weatherlink.com 1.10,2013-08-29 09:58:00,
2013-08-29 06:13:00,63.1,62.0,29.96,NNW,348,0.0,-999.0,97,-99.99,,,0.00,weatherlink.com 1.10,2013-08-29 10:13:00,
2013-08-29 06:28:00,63.0,62.0,29.96,NNW,348,0.0,-999.0,97,-99.99,,,0.00,weatherlink.com 1.10,2013-08-29 10:28:00,
2013-08-29 06:43:00,62.9,62.0,29.97,NNW,348,0.0,-999.0,97,-99.99,,,0.01,weatherlink.com 1.10,2013-08-29 10:43:00,
2013-08-29 06:58:00,62.8,62.0,29.98,NNW,348,0.0,-999.0,97,-99.99,,,0.01,weatherlink.com 1.10,2013-08-29 10:58:00,
2013-08-29 07:13:00,62.8,62.0,29.98,NNW,348,0.0,-999.0,97,-99.99,,,0.01,weatherlink.com 1.10,2013-08-29 11:13:00,
2013-08-29 07:28:00,63.2,62.0,29.99,NNW,348,0.0,-999.0,97,-99.99,,,0.01,weatherlink.com 1.10,2013-08-29 11:28:00,
2013-08-29 07:43:00,63.7,63.0,30.00,NNW,348,0.0,-999.0,98,-99.99,,,0.01,weatherlink.com 1.10,2013-08-29 11:43:00,
2013-08-29 07:58:00,64.8,64.0,30.00,NNW,348,0.0,-999.0,98,-99.99,,,0.01,weatherlink.com 1.10,2013-08-29 11:58:00,
2013-08-29 08:13:00,65.7,65.0,30.01,WNW,302,0.0,-999.0,98,-99.99,,,0.01,weatherlink.com 1.10,2013-08-29 12:13:00,
2013-08-29 08:28:00,66.5,66.0,30.01,WNW,302,0.0,-999.0,98,-99.99,,,0.01,weatherlink.com 1.10,2013-08-29 12:28:00,
2013-08-29 08:43:00,67.2,67.0,30.01,WNW,302,0.0,-999.0,98,-99.99,,,0.01,weatherlink.com 1.10,2013-08-29 12:43:00,
2013-08-29 08:58:00,67.9,67.0,30.01,WNW,302,0.0,-999.0,98,-99.99,,,0.01,weatherlink.com 1.10,2013-08-29 12:58:00,
2013-08-29 09:13:00,68.9,69.0,30.01,WNW,302,0.0,-999.0,99,-99.99,,,0.01,weatherlink.com 1.10,2013-08-29 13:13:00,
2013-08-29 09:28:00,69.7,69.0,30.01,NNW,344,0.0,-999.0,99,-99.99,,,0.01,weatherlink.com 1.10,2013-08-29 13:28:00,
2013-08-29 09:43:00,70.8,71.0,30.01,NNW,344,0.0,-999.0,99,-99.99,,,0.01,weatherlink.com 1.10,2013-08-29 13:43:00,
2013-08-29 09:58:00,72.4,72.0,30.02,WNW,300,0.0,-999.0,99,-99.99,,,0.01,weatherlink.com 1.10,2013-08-29 13:58:00,
2013-08-29 10:13:00,73.9,73.0,30.02,NE,38,2.0,-999.0,98,-99.99,,,0.01,weatherlink.com 1.10,2013-08-29 14:13:00,
2013-08-29 10:28:00,74.8,73.0,30.02,North,360,0.0,-999.0,93,-99.99,,,0.01,weatherlink.com 1.10,2013-08-29 14:28:00,
2013-08-29 10:43:00,77.4,73.0,30.02,North,355,0.0,-999.0,85,-99.99,,,0.01,weatherlink.com 1.10,2013-08-29 14:43:00,
2013-08-29 10:58:00,78.7,72.0,30.01,North,355,0.0,-999.0,80,-99.99,,,0.01,weatherlink.com 1.10,2013-08-29 14:58:00,
2013-08-29 11:13:00,79.1,72.0,30.01,NNW,345,0.0,-999.0,78,-99.99,,,0.01,weatherlink.com 1.10,2013-08-29 15:13:00,
2013-08-29 11:28:00,79.3,72.0,30.02,NE,44,1.0,-999.0,78,-99.99,,,0.01,weatherlink.com 1.10,2013-08-29 15:28:00,
2013-08-29 11:43:00,80.3,72.0,30.02,NNW,348,0.0,-999.0,75,-99.99,,,0.01,weatherlink.com 1.10,2013-08-29 15:43:00,
2013-08-29 11:58:00,80.7,72.0,30.02,NNW,345,3.0,-999.0,75,-99.99,,,0.01,weatherlink.com 1.10,2013-08-29 15:58:00,
2013-08-29 12:13:00,80.8,71.0,30.02,North,349,0.0,-999.0,73,-99.99,,,0.01,weatherlink.com 1.10,2013-08-29 16:13:00,
2013-08-29 12:28:00,81.6,71.0,30.02,NE,49,0.0,-999.0,71,-99.99,,,0.01,weatherlink.com 1.10,2013-08-29 16:28:00,
2013-08-29 12:43:00,82.1,71.0,30.02,NNE,15,0.0,-999.0,69,-99.99,,,0.01,weatherlink.com 1.10,2013-08-29 16:43:00,
2013-08-29 12:58:00,82.5,70.0,30.01,NW,314,2.0,-999.0,67,-99.99,,,0.01,weatherlink.com 1.10,2013-08-29 16:58:00,
2013-08-29 13:13:00,83.0,71.0,30.01,SE,132,0.0,-999.0,67,-99.99,,,0.01,weatherlink.com 1.10,2013-08-29 17:13:00,
2013-08-29 13:28:00,83.2,70.0,30.01,North,350,0.0,-999.0,64,-99.99,,,0.01,weatherlink.com 1.10,2013-08-29 17:28:00,
2013-08-29 13:43:00,83.4,69.0,30.01,North,10,1.0,-999.0,62,-99.99,,,0.01,weatherlink.com 1.10,2013-08-29 17:43:00,
2013-08-29 13:58:00,83.7,69.0,30.01,NNE,29,1.0,-999.0,62,-99.99,,,0.01,weatherlink.com 1.10,2013-08-29 17:58:00,
2013-08-29 14:13:00,85.0,70.0,30.00,NNE,21,2.0,-999.0,61,-99.99,,,0.01,weatherlink.com 1.10,2013-08-29 18:13:00,
2013-08-29 14:42:00,85.0,71.0,29.99,ESE,117,1.0,-999.0,63,-99.99,,,0.01,weatherlink.com 1.10,2013-08-29 18:42:00,
2013-08-29 14:57:00,85.3,71.0,29.99,NNW,329,4.0,-999.0,62,-99.99,,,0.01,weatherlink.com 1.10,2013-08-29 18:57:00,
2013-08-29 15:12:00,84.9,70.0,29.99,North,355,0.0,-999.0,62,-99.99,,,0.01,weatherlink.com 1.10,2013-08-29 19:12:00,
2013-08-29 15:27:00,84.8,70.0,29.99,NNW,345,1.0,-999.0,61,-99.99,,,0.01,weatherlink.com 1.10,2013-08-29 19:27:00,
2013-08-29 15:42:00,85.9,71.0,29.99,NW,313,0.0,-999.0,62,-99.99,,,0.01,weatherlink.com 1.10,2013-08-29 19:42:00,
2013-08-29 15:57:00,85.9,70.0,29.99,West,279,0.0,-999.0,60,-99.99,,,0.01,weatherlink.com 1.10,2013-08-29 19:57:00,
2013-08-29 16:12:00,84.8,71.0,29.99,NNW,342,1.0,-999.0,63,-99.99,,,0.01,weatherlink.com 1.10,2013-08-29 20:12:00,
2013-08-29 16:27:00,84.9,70.0,29.99,North,360,0.0,-999.0,62,-99.99,,,0.01,weatherlink.com 1.10,2013-08-29 20:27:00,
2013-08-29 16:42:00,85.2,70.0,29.99,North,360,0.0,-999.0,61,-99.99,,,0.01,weatherlink.com 1.10,2013-08-29 20:42:00,
2013-08-29 16:57:00,84.6,70.0,29.99,North,355,0.0,-999.0,61,-99.99,,,0.01,weatherlink.com 1.10,2013-08-29 20:57:00,
2013-08-29 17:12:00,84.2,70.0,29.99,North,360,0.0,-999.0,63,-99.99,,,0.01,weatherlink.com 1.10,2013-08-29 21:12:00,
2013-08-29 17:27:00,83.5,70.0,29.99,West,281,0.0,-999.0,64,-99.99,,,0.01,weatherlink.com 1.10,2013-08-29 21:27:00,
2013-08-29 17:42:00,82.9,69.0,30.00,NNW,339,0.0,-999.0,64,-99.99,,,0.01,weatherlink.com 1.10,2013-08-29 21:42:00,
2013-08-29 17:57:00,82.1,69.0,29.99,NNE,15,0.0,-999.0,65,-99.99,,,0.01,weatherlink.com 1.10,2013-08-29 21:57:00,
2013-08-29 18:12:00,81.5,69.0,30.00,NW,323,2.0,-999.0,65,-99.99,,,0.01,weatherlink.com 1.10,2013-08-29 22:12:00,
2013-08-29 18:27:00,80.7,68.0,30.00,NNE,15,3.0,-999.0,65,-99.99,,,0.01,weatherlink.com 1.10,2013-08-29 22:27:00,
2013-08-29 18:42:00,80.1,68.0,29.99,NNE,13,3.0,-999.0,67,-99.99,,,0.01,weatherlink.com 1.10,2013-08-29 22:42:00,
2013-08-29 18:57:00,79.5,68.0,29.99,North,355,0.0,-999.0,69,-99.99,,,0.01,weatherlink.com 1.10,2013-08-29 22:57:00,
2013-08-29 19:12:00,78.9,68.0,29.99,North,350,0.0,-999.0,69,-99.99,,,0.01,weatherlink.com 1.10,2013-08-29 23:12:00,
2013-08-29 19:28:00,78.2,69.0,29.98,North,350,0.0,-999.0,73,-99.99,,,0.01,weatherlink.com 1.10,2013-08-29 23:28:00,
2013-08-29 19:43:00,77.4,69.0,29.98,North,350,0.0,-999.0,75,-99.99,,,0.01,weatherlink.com 1.10,2013-08-29 23:43:00,
2013-08-29 19:58:00,75.8,69.0,29.98,North,350,0.0,-999.0,78,-99.99,,,0.01,weatherlink.com 1.10,2013-08-29 23:58:00,
2013-08-29 20:13:00,74.6,68.0,29.98,North,350,0.0,-999.0,80,-99.99,,,0.01,weatherlink.com 1.10,2013-08-30 00:13:00,
2013-08-29 20:28:00,73.5,68.0,29.98,North,350,0.0,-999.0,82,-99.99,,,0.01,weatherlink.com 1.10,2013-08-30 00:28:00,
2013-08-29 20:43:00,72.5,67.0,29.99,North,350,0.0,-999.0,84,-99.99,,,0.01,weatherlink.com 1.10,2013-08-30 00:43:00,
2013-08-29 20:58:00,71.4,67.0,29.99,North,350,0.0,-999.0,85,-99.99,,,0.01,weatherlink.com 1.10,2013-08-30 00:58:00,
2013-08-29 21:13:00,69.9,66.0,30.00,North,350,0.0,-999.0,87,-99.99,,,0.01,weatherlink.com 1.10,2013-08-30 01:13:00,
2013-08-29 21:28:00,68.9,66.0,30.00,North,350,0.0,-999.0,90,-99.99,,,0.01,weatherlink.com 1.10,2013-08-30 01:28:00,
2013-08-29 21:43:00,68.5,66.0,30.00,North,350,0.0,-999.0,90,-99.99,,,0.01,weatherlink.com 1.10,2013-08-30 01:43:00,
2013-08-29 21:58:00,67.9,65.0,30.00,North,350,0.0,-999.0,91,-99.99,,,0.01,weatherlink.com 1.10,2013-08-30 01:58:00,
2013-08-29 22:13:00,67.4,65.0,30.00,North,350,0.0,-999.0,91,-99.99,,,0.01,weatherlink.com 1.10,2013-08-30 02:13:00,
2013-08-29 22:28:00,67.1,65.0,30.00,North,350,0.0,-999.0,92,-99.99,,,0.01,weatherlink.com 1.10,2013-08-30 02:28:00,
2013-08-29 22:43:00,66.6,64.0,30.00,North,350,0.0,-999.0,92,-99.99,,,0.01,weatherlink.com 1.10,2013-08-30 02:43:00,
2013-08-29 22:58:00,66.3,64.0,30.00,North,350,0.0,-999.0,93,-99.99,,,0.01,weatherlink.com 1.10,2013-08-30 02:58:00,
2013-08-29 23:13:00,65.9,64.0,30.00,North,350,0.0,-999.0,93,-99.99,,,0.01,weatherlink.com 1.10,2013-08-30 03:13:00,
2013-08-29 23:28:00,65.8,64.0,30.00,North,350,0.0,-999.0,94,-99.99,,,0.01,weatherlink.com 1.10,2013-08-30 03:28:00,
2013-08-29 23:43:00,65.6,64.0,29.99,North,350,0.0,-999.0,95,-99.99,,,0.01,weatherlink.com 1.10,2013-08-30 03:43:00,
2013-08-29 23:58:00,65.4,64.0,29.99,North,350,0.0,-999.0,95,-99.99,,,0.01,weatherlink.com 1.10,2013-08-30 03:58:00,